Time;durP1;ratioP1;P1;durP2;ratioP2;P2;SDS_P1;SDS_P2;PMS_P1;PMS_P2;Temp;Humidity;BMP_temperature;BMP_pressure;BME280_temperature;BME280_humidity;BME280_pressure;Samples;Min_cycle;Max_cycle;Signal;HPM_P1;HPM_P2
2022/11/23 00:00:28;;;;;;;25.52;22.88;;;7.60;99.90;;;;;;5075401;28;20076;-73
2022/11/23 00:02:57;;;;;;;23.83;20.98;;;7.70;99.90;;;;;;5090154;28;20423;-73
2022/11/23 00:05:24;;;;;;;21.63;19.33;;;7.70;99.90;;;;;;5086261;28;20057;-73
2022/11/23 00:07:50;;;;;;;24.38;21.48;;;7.60;99.90;;;;;;5074547;28;20072;-74
2022/11/23 00:10:16;;;;;;;24.83;19.35;;;7.70;99.90;;;;;;5118068;27;20104;-74
2022/11/23 00:12:42;;;;;;;23.95;19.85;;;7.70;99.90;;;;;;5121024;27;20372;-73
2022/11/23 00:15:09;;;;;;;24.73;20.60;;;7.70;99.90;;;;;;5080254;28;20544;-74
2022/11/23 00:17:34;;;;;;;28.13;20.38;;;7.70;99.90;;;;;;5084914;28;20044;-73
2022/11/23 00:20:00;;;;;;;25.60;22.90;;;7.70;99.90;;;;;;5083031;28;20040;-74
2022/11/23 00:22:26;;;;;;;27.60;21.70;;;7.70;99.90;;;;;;5112162;27;20081;-73
2022/11/23 00:24:51;;;;;;;24.75;22.10;;;7.70;99.90;;;;;;5087663;28;20071;-73
2022/11/23 00:27:17;;;;;;;23.83;21.30;;;7.70;99.90;;;;;;5081386;28;20119;-73
2022/11/23 00:29:42;;;;;;;23.58;21.02;;;7.80;99.90;;;;;;5094599;27;20198;-73
2022/11/23 00:32:08;;;;;;;26.13;23.33;;;7.80;99.90;;;;;;5074706;28;20040;-73
2022/11/23 00:34:33;;;;;;;24.45;20.63;;;7.80;99.90;;;;;;5086541;28;20119;-73
2022/11/23 00:36:59;;;;;;;24.20;21.40;;;7.80;99.90;;;;;;5078845;28;20244;-73
2022/11/23 00:39:25;;;;;;;27.50;21.42;;;7.80;99.90;;;;;;5086026;28;20041;-73
2022/11/23 00:41:50;;;;;;;28.65;22.52;;;7.80;99.90;;;;;;5080435;28;20380;-73
2022/11/23 00:44:16;;;;;;;26.30;20.95;;;7.80;99.90;;;;;;5085310;28;20533;-74
2022/11/23 00:46:41;;;;;;;24.25;21.50;;;7.70;99.90;;;;;;5078811;28;20162;-73
2022/11/23 00:49:08;;;;;;;21.77;19.30;;;7.80;99.90;;;;;;5084057;28;20395;-73
2022/11/23 00:51:36;;;;;;;26.10;21.67;;;7.80;99.90;;;;;;5079948;28;20975;-73
2022/11/23 00:54:04;;;;;;;22.25;19.70;;;7.80;99.90;;;;;;5079917;28;20136;-73
2022/11/23 00:56:30;;;;;;;26.15;20.92;;;7.80;99.90;;;;;;5082808;28;20500;-74
2022/11/23 00:58:58;;;;;;;27.30;21.92;;;7.80;99.90;;;;;;5083717;28;20183;-73
2022/11/23 01:01:26;;;;;;;24.52;20.58;;;7.80;99.90;;;;;;5114464;27;20040;-73
2022/11/23 01:03:55;;;;;;;25.30;22.73;;;7.80;99.90;;;;;;5079663;28;20091;-74
2022/11/23 01:06:23;;;;;;;24.70;20.40;;;7.80;99.90;;;;;;5116004;28;20044;-73
2022/11/23 01:08:51;;;;;;;26.08;22.83;;;7.80;99.90;;;;;;5082738;28;20518;-72
2022/11/23 01:11:17;;;;;;;;;;;7.80;99.90;;;;;;5086755;28;20036;-73
2022/11/23 01:13:43;;;;;;;26.30;19.98;;;7.80;99.90;;;;;;5084542;28;19920;-73
2022/11/23 01:16:13;;;;;;;26.25;21.88;;;7.70;99.90;;;;;;5086827;28;20511;-73
2022/11/23 01:18:39;;;;;;;25.35;20.40;;;7.80;99.90;;;;;;5081037;28;20079;-73
2022/11/23 01:21:05;;;;;;;25.27;20.98;;;7.80;99.90;;;;;;5084647;28;20101;-73
2022/11/23 01:23:31;;;;;;;24.85;21.33;;;7.80;99.90;;;;;;5085178;28;20069;-73
2022/11/23 01:25:57;;;;;;;25.05;21.20;;;7.80;99.90;;;;;;5083923;28;20372;-73
2022/11/23 01:28:23;;;;;;;24.80;21.70;;;7.80;99.90;;;;;;5090493;28;20122;-73
2022/11/23 01:30:48;;;;;;;24.08;19.65;;;7.80;99.90;;;;;;5088884;28;20089;-73
2022/11/23 01:33:14;;;;;;;25.55;20.17;;;7.80;99.90;;;;;;5081037;28;20066;-73
2022/11/23 01:35:40;;;;;;;21.90;19.05;;;7.80;99.90;;;;;;5082421;28;20119;-73
2022/11/23 01:38:05;;;;;;;23.30;20.90;;;7.80;99.90;;;;;;5081755;28;20442;-73
2022/11/23 01:40:40;;;;;;;23.98;20.67;;;7.80;99.90;;;;;;5078882;28;20075;-73
2022/11/23 01:43:12;;;;;;;22.08;19.77;;;7.80;99.90;;;;;;5078019;28;20050;-73
2022/11/23 01:45:51;;;;;;;21.83;19.33;;;7.80;99.90;;;;;;5118038;28;20047;-74
2022/11/23 01:48:21;;;;;;;21.60;19.30;;;7.90;99.90;;;;;;5081962;28;20036;-73
2022/11/23 01:50:50;;;;;;;22.85;20.55;;;7.90;99.90;;;;;;5080837;28;20084;-73
2022/11/23 01:56:00;;;;;;;23.08;20.70;;;7.90;99.90;;;;;;5092682;27;20405;-72
2022/11/23 01:58:28;;;;;;;23.92;21.55;;;7.90;99.90;;;;;;5077607;28;20036;-72
2022/11/23 02:00:54;;;;;;;24.45;22.17;;;7.90;99.90;;;;;;5077786;28;20123;-72
2022/11/23 02:03:21;;;;;;;22.60;20.23;;;7.90;99.90;;;;;;5073619;28;20221;-72
2022/11/23 02:05:58;;;;;;;24.55;22.15;;;7.90;99.90;;;;;;5075050;28;20103;-72
2022/11/23 02:08:25;;;;;;;23.55;20.13;;;7.90;99.90;;;;;;5076624;28;20059;-72
2022/11/23 02:10:51;;;;;;;;;;;7.90;99.90;;;;;;5075037;28;20059;-72
2022/11/23 02:13:17;;;;;;;23.48;19.42;;;7.80;99.90;;;;;;5077131;28;19944;-73
2022/11/23 02:15:43;;;;;;;22.88;20.27;;;7.90;99.90;;;;;;5080604;28;20475;-73
2022/11/23 02:18:20;;;;;;;24.63;22.20;;;7.90;99.90;;;;;;5077741;28;20048;-72
2022/11/23 02:20:46;;;;;;;25.58;23.05;;;7.90;99.90;;;;;;5077204;28;20071;-72
2022/11/23 02:23:20;;;;;;;24.73;21.45;;;7.90;99.90;;;;;;5076136;28;20459;-72
2022/11/23 02:25:45;;;;;;;22.13;19.98;;;7.90;99.90;;;;;;5075216;28;20060;-72
2022/11/23 02:28:16;;;;;;;25.60;23.10;;;8.00;99.90;;;;;;5070104;28;20044;-72
2022/11/23 02:30:44;;;;;;;24.05;21.25;;;8.00;99.90;;;;;;5081492;28;20032;-72
2022/11/23 02:33:10;;;;;;;24.58;22.08;;;8.00;99.90;;;;;;5074156;28;20040;-72
2022/11/23 02:35:46;;;;;;;26.10;22.98;;;8.00;99.90;;;;;;5069085;28;20048;-72
2022/11/23 02:38:12;;;;;;;24.48;20.95;;;8.00;99.90;;;;;;5073270;28;20147;-73
2022/11/23 02:40:37;;;;;;;25.73;22.95;;;8.00;99.90;;;;;;5069605;28;20535;-72
2022/11/23 02:43:03;;;;;;;24.88;21.83;;;8.00;99.90;;;;;;5079234;28;20047;-72
2022/11/23 02:45:54;;;;;;;27.05;24.17;;;8.00;99.90;;;;;;5080436;28;20047;-73
2022/11/23 02:48:20;;;;;;;28.65;25.73;;;8.00;99.90;;;;;;5076083;28;20548;-72
2022/11/23 02:50:46;;;;;;;31.33;28.13;;;8.00;99.90;;;;;;5083182;28;20072;-73
2022/11/23 02:53:12;;;;;;;34.58;31.02;;;8.00;99.90;;;;;;5075573;28;20044;-72
2022/11/23 02:55:38;;;;;;;38.22;34.50;;;8.00;99.90;;;;;;5091779;28;20129;-72
2022/11/23 02:58:05;;;;;;;39.03;35.05;;;8.00;99.90;;;;;;5075673;28;20041;-72
2022/11/23 03:00:31;;;;;;;39.13;35.33;;;8.00;99.90;;;;;;5085311;28;20040;-72
2022/11/23 03:02:59;;;;;;;35.95;32.33;;;8.10;99.90;;;;;;5075401;28;20045;-72
2022/11/23 03:05:24;;;;;;;27.40;24.27;;;8.00;99.90;;;;;;5067804;28;20059;-72
2022/11/23 03:07:50;;;;;;;27.20;24.35;;;8.10;99.90;;;;;;5056154;28;20040;-72
2022/11/23 03:10:16;;;;;;;24.13;21.50;;;8.10;99.90;;;;;;5065573;28;20036;-72
2022/11/23 03:12:42;;;;;;;23.83;20.27;;;8.00;99.90;;;;;;5061441;28;20045;-72
2022/11/23 03:15:08;;;;;;;24.25;21.35;;;8.00;99.90;;;;;;5054156;28;20048;-72
2022/11/23 03:17:34;;;;;;;25.95;18.98;;;8.10;99.90;;;;;;5061738;28;20040;-72
2022/11/23 03:20:00;;;;;;;26.05;22.08;;;8.10;99.90;;;;;;5056678;28;20403;-72
2022/11/23 03:22:25;;;;;;;24.73;21.02;;;8.00;99.90;;;;;;5062008;28;20524;-72
2022/11/23 03:24:51;;;;;;;25.75;21.08;;;8.10;99.90;;;;;;5062162;28;20040;-73
2022/11/23 03:27:17;;;;;;;24.35;19.17;;;8.10;99.90;;;;;;5055314;28;20115;-72
2022/11/23 03:29:42;;;;;;;22.92;19.77;;;8.10;99.90;;;;;;5060640;28;20068;-70
2022/11/23 03:32:08;;;;;;;23.85;17.95;;;8.10;99.90;;;;;;5061729;28;20123;-72
2022/11/23 03:34:34;;;;;;;22.48;19.35;;;8.10;99.90;;;;;;5062349;28;20123;-73
2022/11/23 03:36:59;;;;;;;26.40;18.75;;;8.10;99.90;;;;;;5065803;28;20044;-73
2022/11/23 03:39:25;;;;;;;23.63;19.13;;;8.10;99.90;;;;;;5061654;28;20036;-72
2022/11/23 03:41:50;;;;;;;22.70;18.88;;;8.10;99.90;;;;;;5066374;28;20052;-72
2022/11/23 03:44:16;;;;;;;23.42;19.15;;;8.10;99.90;;;;;;5062773;28;20071;-73
2022/11/23 03:46:42;;;;;;;27.50;20.23;;;8.10;99.90;;;;;;5065080;28;20397;-72
2022/11/23 03:49:07;;;;;;;23.95;17.50;;;8.20;99.90;;;;;;5063275;28;20160;-72
2022/11/23 03:51:33;;;;;;;29.15;20.83;;;8.20;99.90;;;;;;5060696;28;20060;-73
2022/11/23 03:53:58;;;;;;;28.20;20.85;;;8.20;99.90;;;;;;5064146;28;20141;-72
2022/11/23 03:56:24;;;;;;;30.40;19.10;;;8.20;99.90;;;;;;5076544;28;20133;-73
2022/11/23 03:58:50;;;;;;;28.77;20.42;;;8.20;99.90;;;;;;5067049;28;20052;-72
2022/11/23 04:01:15;;;;;;;28.15;19.45;;;8.20;99.90;;;;;;5056550;28;20158;-73
2022/11/23 04:03:41;;;;;;;31.15;20.92;;;8.20;99.90;;;;;;5058784;28;20033;-72
2022/11/23 04:06:07;;;;;;;26.30;19.20;;;8.20;99.90;;;;;;5060247;28;20041;-73
2022/11/23 04:08:32;;;;;;;30.70;20.95;;;8.20;99.90;;;;;;5061007;28;20041;-72
2022/11/23 04:10:58;;;;;;;30.58;19.65;;;8.20;99.90;;;;;;5060293;28;20067;-73
2022/11/23 04:13:24;;;;;;;30.77;20.02;;;8.20;99.90;;;;;;5061472;28;20082;-73
2022/11/23 04:15:50;;;;;;;28.48;20.83;;;8.30;99.90;;;;;;5066592;28;20048;-73
2022/11/23 04:18:15;;;;;;;25.80;20.02;;;8.20;99.90;;;;;;5047352;28;20087;-72
2022/11/23 04:20:41;;;;;;;30.25;21.00;;;8.30;99.90;;;;;;5051905;28;20032;-72
2022/11/23 04:23:07;;;;;;;30.67;21.48;;;8.30;99.90;;;;;;5063689;28;20051;-72
2022/11/23 04:25:32;;;;;;;25.98;19.60;;;8.30;99.90;;;;;;5061820;28;20095;-73
2022/11/23 04:27:58;;;;;;;28.20;19.90;;;8.20;99.90;;;;;;5058427;28;20941;-72
2022/11/23 04:30:24;;;;;;;29.95;19.50;;;8.30;99.90;;;;;;5057361;28;20505;-73
2022/11/23 04:32:49;;;;;;;27.42;19.17;;;8.30;99.90;;;;;;5055317;28;20043;-72
2022/11/23 04:35:15;;;;;;;25.02;18.27;;;8.30;99.90;;;;;;5064116;28;20121;-73
2022/11/23 04:37:41;;;;;;;25.58;19.02;;;8.30;99.90;;;;;;5063247;28;20044;-72
2022/11/23 04:40:07;;;;;;;28.13;18.33;;;8.30;99.90;;;;;;5055151;28;20029;-73
2022/11/23 04:42:33;;;;;;;26.33;19.33;;;8.30;99.90;;;;;;5049869;28;20460;-72
2022/11/23 04:44:58;;;;;;;28.05;17.35;;;8.30;99.90;;;;;;5059401;28;20118;-72
2022/11/23 04:47:25;;;;;;;27.35;18.67;;;8.30;99.90;;;;;;5050290;28;20029;-73
2022/11/23 04:49:50;;;;;;;28.38;18.60;;;8.30;99.90;;;;;;5057739;28;20049;-73
2022/11/23 04:52:16;;;;;;;26.25;17.55;;;8.30;99.90;;;;;;5061834;28;20445;-73
2022/11/23 04:54:42;;;;;;;29.17;19.23;;;8.30;99.90;;;;;;5052504;28;20061;-73
2022/11/23 04:57:08;;;;;;;26.67;18.20;;;8.30;99.90;;;;;;5055993;28;20049;-74
2022/11/23 04:59:34;;;;;;;25.48;17.15;;;8.30;99.90;;;;;;5060186;28;20523;-73
2022/11/23 05:01:59;;;;;;;25.75;17.35;;;8.30;99.90;;;;;;5053462;28;20127;-74
2022/11/23 05:04:25;;;;;;;27.45;16.83;;;8.30;99.90;;;;;;5062102;28;20037;-74
2022/11/23 05:06:51;;;;;;;28.70;18.55;;;8.30;99.90;;;;;;5064940;28;20039;-74
2022/11/23 05:09:16;;;;;;;28.00;18.45;;;8.30;99.90;;;;;;5069681;28;20439;-73
2022/11/23 05:11:42;;;;;;;26.17;18.77;;;8.30;99.90;;;;;;5060711;28;20094;-73
2022/11/23 05:14:08;;;;;;;41.40;28.48;;;8.30;99.90;;;;;;5063590;28;20055;-73
2022/11/23 05:16:34;;;;;;;48.38;30.73;;;8.30;99.90;;;;;;5064602;28;20052;-73
2022/11/23 05:18:59;;;;;;;37.28;23.35;;;8.30;99.90;;;;;;5053941;28;20072;-74
2022/11/23 05:21:25;;;;;;;30.52;16.63;;;8.30;99.90;;;;;;5063457;28;20079;-74
2022/11/23 05:23:51;;;;;;;26.48;14.93;;;8.30;99.90;;;;;;5059930;28;20492;-74
2022/11/23 05:26:16;;;;;;;25.38;14.00;;;8.30;99.90;;;;;;5064650;28;20461;-74
2022/11/23 05:28:42;;;;;;;27.10;13.32;;;8.20;99.90;;;;;;5072482;28;20049;-73
2022/11/23 05:31:08;;;;;;;21.80;12.95;;;8.30;99.90;;;;;;5061783;28;20078;-73
2022/11/23 05:33:35;;;;;;;26.20;12.93;;;8.30;99.90;;;;;;5058978;28;20042;-73
2022/11/23 05:36:00;;;;;;;22.63;12.20;;;8.30;99.90;;;;;;5061197;28;20060;-74
2022/11/23 05:38:26;;;;;;;24.75;11.30;;;8.30;99.90;;;;;;5062677;28;20037;-73
2022/11/23 05:40:52;;;;;;;21.67;10.38;;;8.30;99.90;;;;;;5051246;28;20423;-73
2022/11/23 05:43:21;;;;;;;18.85;10.38;;;8.20;99.90;;;;;;5053273;28;20044;-73
2022/11/23 05:45:46;;;;;;;21.67;10.68;;;8.30;99.90;;;;;;5062190;28;20045;-74
2022/11/23 05:48:12;;;;;;;21.42;10.98;;;8.30;99.90;;;;;;5072253;28;20387;-74
2022/11/23 05:50:37;;;;;;;20.60;10.57;;;8.20;99.90;;;;;;5069979;28;20040;-73
2022/11/23 05:53:03;;;;;;;29.17;13.73;;;8.20;99.90;;;;;;5059992;28;20041;-74
2022/11/23 05:55:29;;;;;;;59.65;34.00;;;8.20;99.90;;;;;;5058971;28;20488;-74
2022/11/23 05:57:54;;;;;;;43.40;24.13;;;8.20;99.90;;;;;;5059610;28;20052;-74
2022/11/23 06:00:20;;;;;;;41.20;22.60;;;8.20;99.90;;;;;;5062315;28;20044;-73
2022/11/23 06:02:46;;;;;;;48.95;30.38;;;8.20;99.90;;;;;;5071974;28;20049;-73
2022/11/23 06:05:12;;;;;;;86.43;50.38;;;8.10;99.90;;;;;;5058074;28;20066;-74
2022/11/23 06:07:37;;;;;;;76.35;50.30;;;8.10;99.90;;;;;;5059858;28;20052;-73
2022/11/23 06:10:04;;;;;;;140.82;88.43;;;8.00;99.90;;;;;;5057517;28;20136;-73
2022/11/23 06:12:30;;;;;;;241.75;150.45;;;8.00;99.90;;;;;;5090057;28;20057;-74
2022/11/23 06:14:56;;;;;;;271.20;180.52;;;8.00;99.90;;;;;;5064076;28;20044;-73
2022/11/23 06:17:21;;;;;;;186.73;119.85;;;7.90;99.90;;;;;;5064350;28;20475;-73
2022/11/23 06:19:47;;;;;;;102.45;60.55;;;7.90;99.90;;;;;;5056640;28;20037;-73
2022/11/23 06:22:14;;;;;;;35.58;20.70;;;7.80;99.90;;;;;;5063333;28;20072;-73
2022/11/23 06:24:40;;;;;;;22.33;12.98;;;7.80;99.90;;;;;;5062393;28;20063;-73
2022/11/23 06:27:06;;;;;;;19.23;9.45;;;7.70;99.90;;;;;;5061659;28;20040;-73
2022/11/23 06:29:32;;;;;;;21.63;8.73;;;7.70;99.90;;;;;;5061843;28;20036;-73
2022/11/23 06:31:57;;;;;;;20.45;11.57;;;7.70;99.90;;;;;;5054607;28;20039;-73
2022/11/23 06:34:23;;;;;;;19.75;8.63;;;7.70;99.90;;;;;;5067401;28;20808;-73
2022/11/23 06:36:49;;;;;;;21.25;8.15;;;7.70;99.90;;;;;;5063760;28;20056;-73
2022/11/23 06:39:14;;;;;;;16.88;7.82;;;7.60;99.90;;;;;;5055699;28;20056;-73
2022/11/23 06:41:40;;;;;;;17.40;7.80;;;7.60;99.90;;;;;;5059637;28;20499;-74
2022/11/23 06:44:05;;;;;;;18.42;7.85;;;7.60;99.90;;;;;;5058304;28;20395;-73
2022/11/23 06:46:32;;;;;;;19.50;8.38;;;7.60;99.90;;;;;;5064574;28;20480;-73
2022/11/23 06:48:57;;;;;;;19.55;8.70;;;7.60;99.90;;;;;;5063289;28;20041;-73
2022/11/23 06:51:23;;;;;;;20.20;10.88;;;7.60;99.90;;;;;;5063786;28;20029;-73
2022/11/23 06:53:49;;;;;;;24.27;11.93;;;7.60;99.90;;;;;;5066496;28;20060;-72
2022/11/23 06:56:15;;;;;;;29.98;19.33;;;7.60;99.90;;;;;;5059958;28;20502;-73
2022/11/23 06:58:41;;;;;;;30.90;19.27;;;7.60;99.90;;;;;;5060965;28;20074;-73
2022/11/23 07:01:08;;;;;;;29.95;19.58;;;7.70;99.90;;;;;;5055328;28;20075;-74
2022/11/23 07:03:34;;;;;;;21.95;13.80;;;7.70;99.90;;;;;;5091616;28;20484;-73
2022/11/23 07:06:07;;;;;;;24.33;15.07;;;7.60;99.90;;;;;;5065084;28;20040;-74
2022/11/23 07:08:34;;;;;;;37.78;25.33;;;7.60;99.90;;;;;;5096523;28;20140;-72
2022/11/23 07:11:05;;;;;;;36.15;20.88;;;7.60;99.90;;;;;;5059969;28;20048;-73
2022/11/23 07:13:31;;;;;;;35.72;22.90;;;7.60;99.90;;;;;;5091745;28;20041;-73
2022/11/23 07:15:58;;;;;;;31.85;18.40;;;7.60;99.90;;;;;;5066240;28;20140;-73
2022/11/23 07:18:24;;;;;;;39.65;26.10;;;7.60;99.90;;;;;;5063111;28;20082;-73
2022/11/23 07:20:50;;;;;;;45.58;30.95;;;7.60;99.90;;;;;;5062505;28;20044;-73
2022/11/23 07:23:15;;;;;;;37.65;25.13;;;7.70;99.90;;;;;;5066728;28;20037;-73
2022/11/23 07:25:41;;;;;;;39.35;26.42;;;7.70;99.90;;;;;;5057073;28;20037;-74
2022/11/23 07:28:09;;;;;;;31.55;21.58;;;7.70;99.90;;;;;;5062599;28;20044;-73
2022/11/23 07:30:35;;;;;;;40.17;27.63;;;7.70;99.90;;;;;;5089546;27;20032;-73
2022/11/23 07:33:07;;;;;;;39.13;25.77;;;7.80;99.90;;;;;;5061613;28;20051;-73
2022/11/23 07:35:34;;;;;;;46.30;33.58;;;7.80;99.90;;;;;;5067410;28;20098;-73
2022/11/23 07:38:01;;;;;;;50.88;32.08;;;7.80;99.90;;;;;;5067189;28;20079;-74
2022/11/23 07:40:27;;;;;;;53.63;37.05;;;7.90;99.90;;;;;;5091112;28;20049;-74
2022/11/23 07:42:59;;;;;;;52.78;36.22;;;7.90;99.90;;;;;;5063955;28;20140;-74
2022/11/23 07:45:25;;;;;;;49.63;34.03;;;7.90;99.90;;;;;;5055232;28;20052;-73
2022/11/23 07:48:00;;;;;;;53.05;29.17;;;7.90;99.90;;;;;;5062159;28;20114;-74
2022/11/23 07:50:27;;;;;;;49.10;28.35;;;7.90;99.90;;;;;;5073893;28;20685;-74
2022/11/23 07:52:53;;;;;;;54.45;34.88;;;8.00;99.90;;;;;;5055571;28;20486;-74
2022/11/23 07:55:19;;;;;;;41.33;29.58;;;8.00;99.90;;;;;;5063957;28;20100;-73
2022/11/23 07:57:45;;;;;;;53.88;36.60;;;8.00;99.90;;;;;;5091505;28;20083;-74
2022/11/23 08:00:11;;;;;;;45.30;33.30;;;8.00;99.90;;;;;;5049651;28;20128;-72
2022/11/23 08:02:37;;;;;;;45.05;30.25;;;8.00;99.90;;;;;;5056576;28;20037;-73
2022/11/23 08:05:03;;;;;;;42.38;28.35;;;8.10;99.90;;;;;;5064242;28;20036;-73
2022/11/23 08:07:29;;;;;;;42.22;27.50;;;8.10;99.90;;;;;;5057178;28;20083;-73
2022/11/23 08:09:55;;;;;;;39.88;29.95;;;8.00;99.90;;;;;;5061946;28;20072;-74
2022/11/23 08:12:21;;;;;;;45.75;27.52;;;8.10;99.90;;;;;;5056851;28;20087;-73
2022/11/23 08:14:47;;;;;;;41.03;29.92;;;8.10;99.90;;;;;;5061460;28;20044;-71
2022/11/23 08:17:13;;;;;;;51.13;30.20;;;8.20;99.90;;;;;;5052385;28;20670;-68
2022/11/23 08:19:39;;;;;;;43.92;26.92;;;8.20;99.90;;;;;;5062533;28;20047;-76
2022/11/23 08:22:05;;;;;;;49.47;24.40;;;8.20;99.90;;;;;;5058068;28;20060;-77
2022/11/23 08:24:30;;;;;;;53.97;26.80;;;8.20;99.90;;;;;;5065576;28;20044;-78
2022/11/23 08:26:56;;;;;;;75.38;35.22;;;8.30;99.90;;;;;;5061020;28;20049;-78
2022/11/23 08:29:21;;;;;;;70.75;35.50;;;8.30;99.90;;;;;;5063443;28;20097;-76
2022/11/23 08:31:47;;;;;;;69.93;35.03;;;8.30;99.90;;;;;;5058897;28;20116;-78
2022/11/23 08:34:13;;;;;;;68.20;32.28;;;8.30;99.90;;;;;;5059167;28;20036;-78
2022/11/23 08:36:38;;;;;;;58.55;30.23;;;8.40;99.90;;;;;;5063449;28;20048;-79
2022/11/23 08:39:04;;;;;;;62.25;30.25;;;8.40;99.90;;;;;;5062166;28;20032;-77
2022/11/23 08:41:30;;;;;;;54.88;27.85;;;8.40;99.90;;;;;;5057993;28;20456;-76
2022/11/23 08:43:55;;;;;;;47.55;22.52;;;8.40;99.90;;;;;;5054588;28;20029;-75
2022/11/23 08:46:21;;;;;;;47.05;20.67;;;8.50;99.90;;;;;;5057676;28;20578;-76
2022/11/23 08:48:47;;;;;;;46.22;18.90;;;8.50;99.90;;;;;;5064500;28;20119;-76
2022/11/23 08:51:13;;;;;;;47.25;22.13;;;8.50;99.90;;;;;;5073742;28;20487;-76
2022/11/23 08:53:38;;;;;;;45.10;21.80;;;8.50;99.90;;;;;;5065260;28;20059;-77
2022/11/23 08:56:05;;;;;;;40.50;16.55;;;8.50;99.90;;;;;;5058696;28;20055;-75
2022/11/23 08:58:31;;;;;;;38.70;18.15;;;8.60;99.90;;;;;;5054950;28;20422;-76
2022/11/23 09:00:57;;;;;;;47.65;22.23;;;8.60;99.90;;;;;;5061106;28;20041;-71
2022/11/23 09:03:23;;;;;;;61.85;29.15;;;8.60;99.90;;;;;;5065766;28;20075;-69
2022/11/23 09:05:50;;;;;;;67.70;28.42;;;8.70;99.90;;;;;;5065668;28;20032;-75
2022/11/23 09:08:16;;;;;;;52.60;21.95;;;8.70;99.90;;;;;;5054082;28;20040;-80
2022/11/23 09:10:41;;;;;;;63.22;26.67;;;8.70;99.90;;;;;;5063467;28;20036;-78
2022/11/23 09:13:07;;;;;;;54.97;24.38;;;8.70;99.90;;;;;;5063636;28;20091;-75
2022/11/23 09:15:33;;;;;;;42.30;17.90;;;8.70;99.90;;;;;;5060086;28;20106;-79
2022/11/23 09:17:59;;;;;;;33.28;14.10;;;8.70;99.90;;;;;;5055050;28;21550;-74
2022/11/23 09:20:25;;;;;;;26.67;9.27;;;8.70;99.90;;;;;;5063385;28;20352;-78
2022/11/23 09:22:53;;;;;;;26.25;9.52;;;8.70;99.90;;;;;;5054711;28;20052;-78
2022/11/23 09:25:19;;;;;;;20.00;8.57;;;8.70;99.90;;;;;;5062962;28;20602;-78
2022/11/23 09:27:44;;;;;;;21.95;8.10;;;8.70;99.90;;;;;;5061595;28;20039;-77
2022/11/23 09:30:11;;;;;;;21.50;7.50;;;8.70;99.90;;;;;;5061554;28;20044;-77
2022/11/23 09:32:36;;;;;;;21.23;7.30;;;8.70;99.90;;;;;;5054730;28;20032;-77
2022/11/23 09:35:02;;;;;;;24.55;7.50;;;8.70;99.90;;;;;;5074083;28;20056;-77
2022/11/23 09:37:28;;;;;;;19.90;7.40;;;8.70;99.90;;;;;;5053899;28;20066;-73
2022/11/23 09:39:53;;;;;;;23.15;8.43;;;8.70;99.90;;;;;;5066277;28;20453;-73
2022/11/23 09:42:19;;;;;;;21.45;8.55;;;8.80;99.90;;;;;;5065564;28;20064;-74
2022/11/23 09:45:03;;;;;;;21.63;8.27;;;8.80;99.90;;;;;;5058154;28;20120;-72
2022/11/23 09:47:47;;;;;;;27.55;8.65;;;8.80;99.90;;;;;;5058833;28;20048;-72
2022/11/23 09:50:17;;;;;;;24.65;8.15;;;8.80;99.90;;;;;;5059419;28;20049;-72
2022/11/23 09:52:45;;;;;;;19.77;6.00;;;8.80;99.90;;;;;;5058811;28;20049;-72
2022/11/23 09:55:31;;;;;;;19.13;6.18;;;8.80;99.90;;;;;;5064460;28;20106;-72
2022/11/23 09:58:01;;;;;;;21.52;6.80;;;8.90;99.90;;;;;;5062243;28;20459;-72
2022/11/23 10:00:34;;;;;;;18.55;6.05;;;8.80;99.90;;;;;;5065910;28;20044;-72
2022/11/23 10:02:59;;;;;;;20.67;6.82;;;8.80;99.90;;;;;;5063253;28;20056;-72
2022/11/23 10:05:30;;;;;;;18.25;5.68;;;8.80;99.90;;;;;;5080977;28;20115;-73
2022/11/23 10:08:09;;;;;;;18.48;5.90;;;8.80;99.90;;;;;;5065626;28;20040;-72
2022/11/23 10:10:49;;;;;;;17.52;5.18;;;8.90;99.90;;;;;;5064772;28;20048;-72
2022/11/23 10:13:43;;;;;;;18.63;4.78;;;8.90;99.90;;;;;;5063271;28;20036;-72
2022/11/23 10:16:31;;;;;;;20.75;5.03;;;8.90;99.90;;;;;;5054811;28;20083;-72
2022/11/23 10:19:19;;;;;;;13.98;4.85;;;9.00;99.90;;;;;;5050926;28;20094;-72
2022/11/23 10:22:04;;;;;;;19.55;5.57;;;9.00;99.90;;;;;;5068309;28;20044;-71
2022/11/23 10:24:38;;;;;;;21.35;5.55;;;9.10;99.90;;;;;;5059354;28;20045;-78
2022/11/23 10:27:12;;;;;;;19.35;5.22;;;9.10;99.90;;;;;;5067761;28;20425;-76
2022/11/23 10:29:39;;;;;;;17.90;5.40;;;9.20;99.90;;;;;;5079571;28;20322;-83
2022/11/23 10:32:12;;;;;;;19.92;5.28;;;9.30;99.90;;;;;;5064846;28;20045;-83
2022/11/23 10:34:47;;;;;;;18.10;5.10;;;9.40;99.90;;;;;;5067895;28;20052;-81
2022/11/23 10:37:15;;;;;;;17.67;4.88;;;9.40;99.90;;;;;;5065249;28;20041;-80
2022/11/23 10:39:41;;;;;;;22.90;5.70;;;9.40;99.90;;;;;;5067681;28;20450;-81
2022/11/23 10:42:19;;;;;;;19.75;5.00;;;9.50;99.90;;;;;;5060656;28;20123;-86
2022/11/23 10:44:48;;;;;;;17.50;4.75;;;9.50;99.90;;;;;;5065370;28;20072;-72
2022/11/23 10:47:40;;;;;;;15.85;5.45;;;9.50;99.90;;;;;;5069562;28;20048;-74
2022/11/23 10:50:24;;;;;;;20.15;4.53;;;9.60;99.90;;;;;;5067656;28;20045;-74
2022/11/23 10:53:21;;;;;;;18.27;5.25;;;9.60;99.90;;;;;;5071204;28;20450;-74
2022/11/23 10:55:56;;;;;;;12.38;4.63;;;9.60;99.90;;;;;;5048704;28;20087;-74
2022/11/23 10:58:28;;;;;;;21.05;5.20;;;9.60;99.90;;;;;;5069514;28;20381;-73
2022/11/23 11:01:13;;;;;;;19.40;6.53;;;9.60;99.90;;;;;;5067987;28;20090;-74
2022/11/23 11:03:38;;;;;;;17.83;6.13;;;9.70;99.90;;;;;;5067631;28;20147;-74
2022/11/23 11:06:04;;;;;;;19.58;6.28;;;9.80;99.90;;;;;;5065783;28;20119;-74
2022/11/23 11:08:33;;;;;;;17.92;6.22;;;9.80;99.90;;;;;;5067986;28;20667;-75
2022/11/23 11:11:08;;;;;;;19.25;5.32;;;9.90;99.90;;;;;;5063133;28;20044;-74
2022/11/23 11:13:43;;;;;;;;;;;10.00;99.90;;;;;;5101272;28;20053;-75
2022/11/23 11:16:32;;;;;;;21.92;9.77;;;10.00;99.90;;;;;;5069948;28;20037;-75
2022/11/23 11:18:58;;;;;;;21.65;7.18;;;10.10;99.90;;;;;;5068047;28;20554;-74
2022/11/23 11:21:32;;;;;;;18.77;6.35;;;10.10;99.90;;;;;;5065380;28;20044;-75
2022/11/23 11:24:04;;;;;;;17.35;5.50;;;10.10;99.90;;;;;;5065161;28;20404;-74
2022/11/23 11:26:32;;;;;;;15.93;5.00;;;10.20;99.90;;;;;;5065230;28;20091;-73
2022/11/23 11:29:04;;;;;;;14.95;4.10;;;10.20;99.90;;;;;;5068183;28;20041;-73
2022/11/23 11:31:45;;;;;;;17.00;6.32;;;10.20;99.90;;;;;;5065329;28;20041;-71
2022/11/23 11:34:28;;;;;;;17.25;5.97;;;10.20;99.90;;;;;;5056299;28;20090;-76
2022/11/23 11:37:06;;;;;;;18.23;7.13;;;10.20;99.90;;;;;;5098760;28;20073;-78
2022/11/23 11:39:48;;;;;;;18.58;8.38;;;10.30;99.90;;;;;;5064725;28;20390;-77
2022/11/23 11:42:26;;;;;;;15.52;5.82;;;10.40;99.90;;;;;;5065576;28;20098;-77
2022/11/23 11:44:55;;;;;;;20.23;11.18;;;10.30;99.90;;;;;;5062388;28;20044;-76
2022/11/23 11:47:35;;;;;;;18.05;7.65;;;10.30;99.90;;;;;;5063887;28;20044;-74
2022/11/23 11:50:19;;;;;;;23.65;11.43;;;10.40;99.90;;;;;;5077592;28;20044;-81
2022/11/23 11:52:49;;;;;;;18.35;9.75;;;10.30;99.90;;;;;;5051676;28;20071;-80
2022/11/23 11:55:25;;;;;;;15.00;4.60;;;10.40;99.90;;;;;;5063924;28;20056;-76
2022/11/23 11:57:53;;;;;;;15.52;5.70;;;10.40;99.90;;;;;;5063169;28;20076;-79
2022/11/23 12:00:20;;;;;;;16.38;7.00;;;10.30;99.90;;;;;;5060089;28;20521;-74
2022/11/23 12:03:07;;;;;;;23.43;10.77;;;10.40;99.90;;;;;;5064760;28;20080;-72
2022/11/23 12:05:47;;;;;;;24.02;9.15;;;10.40;99.90;;;;;;5065026;28;20051;-74
2022/11/23 12:08:25;;;;;;;22.42;11.05;;;10.40;99.90;;;;;;5061201;28;20559;-74
2022/11/23 12:10:58;;;;;;;18.58;8.57;;;10.40;99.90;;;;;;5060810;28;20053;-74
2022/11/23 12:13:45;;;;;;;13.25;4.53;;;10.50;99.90;;;;;;5068338;28;20032;-73
2022/11/23 12:16:46;;;;;;;20.05;5.43;;;10.50;99.90;;;;;;5059434;28;20056;-73
2022/11/23 12:19:29;;;;;;;16.98;5.45;;;10.50;99.90;;;;;;5055055;28;20049;-75
2022/11/23 12:22:32;;;;;;;15.05;5.78;;;10.50;99.90;;;;;;5056437;28;20044;-77
2022/11/23 12:25:10;;;;;;;19.27;9.10;;;10.50;99.90;;;;;;5064197;28;20185;-74
2022/11/23 12:28:03;;;;;;;12.93;3.47;;;10.50;99.90;;;;;;5067653;28;20426;-75
2022/11/23 12:30:41;;;;;;;14.43;4.70;;;10.50;99.90;;;;;;5056440;28;20127;-75
2022/11/23 12:33:56;;;;;;;14.70;7.10;;;10.60;99.90;;;;;;5080173;28;20551;-75
2022/11/23 12:36:46;;;;;;;13.15;5.07;;;10.50;99.90;;;;;;5051807;28;20052;-75
2022/11/23 12:39:39;;;;;;;14.63;6.25;;;10.60;99.90;;;;;;5061368;28;20044;-74
2022/11/23 12:42:18;;;;;;;11.55;4.22;;;10.60;99.90;;;;;;5058003;28;20068;-72
2022/11/23 12:44:48;;;;;;;15.52;4.00;;;10.60;99.90;;;;;;5058647;28;20148;-76
2022/11/23 12:47:20;;;;;;;14.00;3.00;;;10.60;99.90;;;;;;5095003;28;20507;-75
2022/11/23 12:49:56;;;;;;;12.05;3.58;;;10.60;99.90;;;;;;5067478;28;20047;-76